Terminal Aerodrome Forecast
Issued by NWS Amarillo, TX

Home | Current Version | Previous Version | Text Only | Print | Product List | Glossary On
Versions: 1 2 3 4 5 6 7 8 9 10 11 12 13 14 15 16 17
000
FTUS44 KAMA 271100 RRA
TAFAMA
TAF
KAMA 271142Z 2712/2812 11014KT 1SM -SN BR OVC012
      TEMPO 2712/2715 1/2SM SN FZFG OVC008
     FM271530 13015KT 3SM -SN BR OVC015
     FM271700 15014KT P6SM OVC015
     FM280700 16014KT 3SM -SN BR OVC010=

USA.gov is the U.S. government's official web portal to all federal, state and local government web resources and services.